This is the latest recevied weather packets stored in our database for station/object JF2ZGN-13. If no packets are shown the sender has not sent any weather packets the latest 10 day(s).
| Time | Temp. | Humidity | Pressure | Rain* | Wind** | Luminosity | Snow |
|---|---|---|---|---|---|---|---|
| 1787560522 | 21.67° C | 87% | 911.8 hPa | 0 mm | - | - | - |
| 1787559921 | 22.22° C | 85% | 911.7 hPa | 0 mm | - | - | - |
| 1787559321 | 21.67° C | 89% | 911.7 hPa | 0 mm | - | - | - |
| 1787558720 | 21.67° C | 89% | 911.7 hPa | 0 mm | - | - | - |
| 1787558120 | 21.67° C | 88% | 911.8 hPa | 0 mm | - | - | - |
| 1787556919 | 22.22° C | 87% | 912.2 hPa | 0 mm | - | - | - |
| 1787556318 | 22.22° C | 87% | 912.2 hPa | 0 mm | - | - | - |
| 1787555718 | 22.22° C | 87% | 912.2 hPa | 0 mm | - | - | - |
| 1787555117 | 22.78° C | 86% | 912.2 hPa | 0 mm | - | - | - |
| 1787554517 | 22.78° C | 83% | 912.2 hPa | 0 mm | - | - | - |
| 1787553917 | 23.33° C | 81% | 912.1 hPa | 0 mm | - | - | - |
| 1787553316 | 23.33° C | 82% | 912.2 hPa | 0 mm | - | - | - |
| 1787552115 | 23.33° C | 81% | 912.4 hPa | 0 mm | - | - | - |
| 1787551517 | 23.89° C | 77% | 912.4 hPa | 0 mm | - | - | - |
| 1787550914 | 24.44° C | 79% | 912.3 hPa | 0 mm | - | - | - |
| 1787550314 | 24.44° C | 78% | 912.5 hPa | 0 mm | - | - | - |
| 1787549714 | 24.44° C | 76% | 912.6 hPa | 0 mm | - | - | - |
| 1787549113 | 25° C | 78% | 912.7 hPa | 0 mm | - | - | - |
| 1787548512 | 23.89° C | 81% | 912.6 hPa | 0 mm | - | - | - |
| 1787547912 | 23.33° C | 82% | 912.7 hPa | 0 mm | - | - | - |
| 1787547312 | 23.89° C | 81% | 912.8 hPa | 0 mm | - | - | - |
| 1787546711 | 23.89° C | 83% | 912.5 hPa | 0 mm | - | - | - |
| 1787546111 | 23.89° C | 81% | 912.8 hPa | 0 mm | - | - | - |
| 1787545510 | 23.89° C | 82% | 912.9 hPa | 0 mm | - | - | - |
| 1787544909 | 23.89° C | 81% | 912.9 hPa | 0 mm | - | - | - |
* Rain since midnight (hover to see other rain measurements)
** Current wind speed in m/s (hover to see current wind gust speed)